createdAt,value
2023-12-17T00:00:55.232Z,0.00
2023-12-17T00:01:55.044Z,0.00
2023-12-17T00:03:16.946Z,0.00
2023-12-17T00:03:56.076Z,0.00
2023-12-17T00:04:55.214Z,0.00
2023-12-17T00:05:55.269Z,0.00
2023-12-17T00:06:55.040Z,0.00
2023-12-17T00:07:55.109Z,0.00
2023-12-17T00:08:54.992Z,0.00
2023-12-17T00:09:55.002Z,0.00
2023-12-17T00:10:54.951Z,0.00
2023-12-17T00:11:55.049Z,0.00
2023-12-17T00:12:54.918Z,0.00
2023-12-17T00:13:54.907Z,0.00
2023-12-17T00:14:55.018Z,0.00
2023-12-17T00:15:54.890Z,0.00
2023-12-17T00:16:54.898Z,0.00
2023-12-17T00:17:54.989Z,0.00
2023-12-17T00:18:55.158Z,0.00
2023-12-17T00:19:54.915Z,0.00
2023-12-17T00:20:54.900Z,0.00
2023-12-17T00:21:54.834Z,0.00
2023-12-17T00:22:54.830Z,0.00
2023-12-17T00:23:54.874Z,0.00
2023-12-17T00:24:54.795Z,0.00
2023-12-17T00:25:54.785Z,0.00
2023-12-17T00:26:54.803Z,0.00
2023-12-17T00:27:54.764Z,0.00
2023-12-17T00:28:54.775Z,0.00
2023-12-17T00:29:54.773Z,0.00
2023-12-17T00:30:54.759Z,0.00
2023-12-17T00:32:00.695Z,0.00
2023-12-17T00:32:55.857Z,0.00
2023-12-17T00:33:54.998Z,0.00
2023-12-17T00:34:54.691Z,0.00
2023-12-17T00:35:54.701Z,0.00
2023-12-17T00:36:54.668Z,0.00
2023-12-17T00:37:54.674Z,0.00
2023-12-17T00:38:54.661Z,0.00
2023-12-17T00:39:54.664Z,0.00
2023-12-17T00:40:54.659Z,0.00
2023-12-17T00:41:54.704Z,0.00
2023-12-17T00:42:54.625Z,0.00
2023-12-17T00:43:54.600Z,0.00
2023-12-17T00:44:54.609Z,0.00
2023-12-17T00:45:54.577Z,0.00
2023-12-17T00:46:54.594Z,0.00
2023-12-17T00:47:54.715Z,0.00
2023-12-17T00:48:54.717Z,0.00
2023-12-17T00:49:54.617Z,0.00
2023-12-17T00:50:54.547Z,0.00
2023-12-17T00:51:54.548Z,0.00
2023-12-17T00:52:54.529Z,0.00
2023-12-17T00:53:54.548Z,0.00
2023-12-17T00:54:54.514Z,0.00
2023-12-17T00:55:54.486Z,0.00
2023-12-17T00:56:54.563Z,0.00
2023-12-17T00:57:54.466Z,0.00
2023-12-17T00:58:54.456Z,0.00
2023-12-17T01:00:26.405Z,0.00
2023-12-17T01:00:56.126Z,0.00
2023-12-17T01:01:54.478Z,0.00
2023-12-17T01:02:54.486Z,0.00
2023-12-17T01:03:54.482Z,0.00
2023-12-17T01:04:54.404Z,0.00
2023-12-17T01:05:54.582Z,0.00
2023-12-17T01:06:54.423Z,0.00
2023-12-17T01:07:54.358Z,0.00
2023-12-17T01:08:54.400Z,0.00
2023-12-17T01:09:54.352Z,0.00
2023-12-17T01:10:54.353Z,0.00
2023-12-17T01:11:54.400Z,0.00
2023-12-17T01:12:54.309Z,0.00
2023-12-17T01:13:54.365Z,0.00
2023-12-17T01:14:54.452Z,0.00
2023-12-17T01:15:54.370Z,0.00
2023-12-17T01:16:54.269Z,0.00
2023-12-17T01:17:54.494Z,0.00
2023-12-17T01:18:54.475Z,0.00
2023-12-17T01:19:54.477Z,0.00
2023-12-17T01:20:54.284Z,0.00
2023-12-17T01:21:54.230Z,0.00
2023-12-17T01:22:54.252Z,0.00
2023-12-17T01:23:54.243Z,0.00
2023-12-17T01:24:54.232Z,0.00
2023-12-17T01:25:54.178Z,0.00
2023-12-17T01:26:54.224Z,0.00
2023-12-17T01:27:54.156Z,0.00
2023-12-17T01:28:54.168Z,0.00
2023-12-17T01:29:54.188Z,0.00
2023-12-17T01:30:54.177Z,0.00
2023-12-17T01:31:55.128Z,0.00
2023-12-17T01:32:54.247Z,0.00
2023-12-17T01:33:54.236Z,0.00
2023-12-17T01:34:54.098Z,0.00
2023-12-17T01:35:54.118Z,0.00
2023-12-17T01:36:54.089Z,0.00
2023-12-17T01:37:54.073Z,0.00
2023-12-17T01:38:54.128Z,0.00
2023-12-17T01:39:54.037Z,0.00
2023-12-17T01:40:54.024Z,0.00
2023-12-17T01:41:54.066Z,0.00
2023-12-17T01:42:54.110Z,0.00
2023-12-17T01:43:54.010Z,0.00
2023-12-17T01:44:54.001Z,0.00
2023-12-17T01:45:54.014Z,0.00
2023-12-17T01:46:53.964Z,0.00
2023-12-17T01:47:54.084Z,0.00
2023-12-17T01:48:54.089Z,0.00
2023-12-17T01:49:53.963Z,0.00
2023-12-17T01:50:53.937Z,0.00
2023-12-17T01:51:53.930Z,0.00
2023-12-17T01:52:53.934Z,0.00
2023-12-17T01:53:53.918Z,0.00
2023-12-17T01:54:53.890Z,0.00
2023-12-17T01:55:53.873Z,0.00
2023-12-17T01:56:53.940Z,0.00
2023-12-17T01:57:53.896Z,0.00
2023-12-17T01:58:53.855Z,0.00
2023-12-17T01:59:53.885Z,0.00
2023-12-17T02:00:53.882Z,0.00
2023-12-17T02:01:53.836Z,0.00
2023-12-17T02:02:53.884Z,0.00
2023-12-17T02:03:53.916Z,0.00
2023-12-17T02:04:53.782Z,0.00
2023-12-17T02:05:53.804Z,0.00
2023-12-17T02:06:53.877Z,0.00
2023-12-17T02:07:53.753Z,0.00
2023-12-17T02:08:54.780Z,0.00
2023-12-17T02:09:53.736Z,0.00
2023-12-17T02:10:53.762Z,0.00
2023-12-17T02:11:53.744Z,0.00
2023-12-17T02:12:53.718Z,0.00
2023-12-17T02:13:53.715Z,0.00
2023-12-17T02:14:53.696Z,0.00
2023-12-17T02:15:53.696Z,0.00
2023-12-17T02:16:53.677Z,0.00
2023-12-17T02:17:53.929Z,0.00
2023-12-17T02:18:53.883Z,0.00
2023-12-17T02:19:53.637Z,0.00
2023-12-17T02:20:53.656Z,0.00
2023-12-17T02:21:53.622Z,0.00
2023-12-17T02:22:53.644Z,0.00
2023-12-17T02:23:53.639Z,0.00
2023-12-17T02:24:53.636Z,0.00
2023-12-17T02:25:53.607Z,0.00
2023-12-17T02:26:53.602Z,0.00
2023-12-17T02:27:53.570Z,0.00
2023-12-17T02:28:53.559Z,0.00
2023-12-17T02:29:53.659Z,0.00
2023-12-17T02:30:53.575Z,0.00
2023-12-17T02:31:53.521Z,0.00
2023-12-17T02:32:53.597Z,0.00
2023-12-17T02:33:53.656Z,0.00
2023-12-17T02:34:53.575Z,0.00
2023-12-17T02:35:53.516Z,0.00
2023-12-17T02:36:53.484Z,0.00
2023-12-17T02:37:53.481Z,0.00
2023-12-17T02:38:53.488Z,0.00
2023-12-17T02:39:53.460Z,0.00
2023-12-17T02:40:53.432Z,0.00
2023-12-17T02:41:53.436Z,0.00
2023-12-17T02:42:53.416Z,0.00
2023-12-17T02:43:53.420Z,0.00
2023-12-17T02:44:53.418Z,0.00
2023-12-17T02:45:53.387Z,0.00
2023-12-17T02:46:53.385Z,0.00
2023-12-17T02:47:53.459Z,0.00
2023-12-17T02:48:53.721Z,0.00
2023-12-17T02:49:54.363Z,0.00
2023-12-17T02:50:53.428Z,0.00
2023-12-17T02:51:53.319Z,0.00
2023-12-17T02:52:53.320Z,0.00
2023-12-17T02:53:53.316Z,0.00
2023-12-17T02:54:53.293Z,0.00
2023-12-17T02:55:53.277Z,0.00
2023-12-17T02:56:53.309Z,0.00
2023-12-17T02:57:53.301Z,0.00
2023-12-17T02:58:53.244Z,0.00
2023-12-17T02:59:53.257Z,0.00
2023-12-17T03:00:53.317Z,0.00
2023-12-17T03:01:53.220Z,0.00
2023-12-17T03:02:53.297Z,0.00
2023-12-17T03:03:53.261Z,0.00
2023-12-17T03:04:53.227Z,0.00
2023-12-17T03:05:53.212Z,0.00
2023-12-17T03:06:53.190Z,0.00
2023-12-17T03:07:53.185Z,0.00
2023-12-17T03:08:53.193Z,0.00
2023-12-17T03:09:53.190Z,0.00
2023-12-17T03:10:53.133Z,0.00
2023-12-17T03:11:53.147Z,0.00
2023-12-17T03:12:53.116Z,0.00
2023-12-17T03:13:53.105Z,0.00
2023-12-17T03:14:53.094Z,0.00
2023-12-17T03:15:53.082Z,0.00
2023-12-17T03:16:53.082Z,0.00
2023-12-17T03:17:53.107Z,0.00
2023-12-17T03:18:54.066Z,0.00
2023-12-17T03:19:53.069Z,0.00
2023-12-17T03:20:53.104Z,0.00
2023-12-17T03:21:53.050Z,0.00
2023-12-17T03:22:53.017Z,0.00
2023-12-17T03:23:53.068Z,0.00
2023-12-17T03:24:53.004Z,0.00
2023-12-17T03:25:53.036Z,0.00
2023-12-17T03:26:52.994Z,0.00
2023-12-17T03:27:52.964Z,0.00
2023-12-17T03:28:52.957Z,0.00
2023-12-17T03:29:52.987Z,0.00
2023-12-17T03:30:53.039Z,0.00
2023-12-17T03:31:52.949Z,0.00
2023-12-17T03:32:53.086Z,0.00
2023-12-17T03:33:53.060Z,0.00
2023-12-17T03:34:52.934Z,0.00
2023-12-17T03:35:52.928Z,0.00
2023-12-17T03:36:52.874Z,0.00
2023-12-17T03:37:52.864Z,0.00
2023-12-17T03:38:52.880Z,0.00
2023-12-17T03:39:52.862Z,0.00
2023-12-17T03:40:52.829Z,0.00
2023-12-17T03:41:52.840Z,0.00
2023-12-17T03:42:52.826Z,0.00
2023-12-17T03:43:52.792Z,0.00
2023-12-17T03:44:52.834Z,0.00
2023-12-17T03:45:52.790Z,0.00
2023-12-17T03:46:52.762Z,0.00
2023-12-17T03:47:52.913Z,0.00
2023-12-17T03:48:52.883Z,0.00
2023-12-17T03:49:52.819Z,0.00
2023-12-17T03:50:52.755Z,0.00
2023-12-17T03:51:52.720Z,0.00
2023-12-17T03:52:52.706Z,0.00
2023-12-17T03:53:52.743Z,0.00
2023-12-17T03:54:52.707Z,0.00
2023-12-17T03:55:52.677Z,0.00
2023-12-17T03:56:52.695Z,0.00
2023-12-17T03:57:52.662Z,0.00
2023-12-17T03:58:52.662Z,0.00
2023-12-17T03:59:52.659Z,0.00
2023-12-17T04:00:52.649Z,0.00
2023-12-17T04:01:52.625Z,0.00
2023-12-17T04:02:52.664Z,0.00
2023-12-17T04:03:52.716Z,0.00
2023-12-17T04:04:52.638Z,0.00
2023-12-17T04:05:52.586Z,0.00
2023-12-17T04:06:52.561Z,0.00
2023-12-17T04:07:52.576Z,0.00
2023-12-17T04:08:54.687Z,0.00
2023-12-17T04:09:53.542Z,0.00
2023-12-17T04:10:52.538Z,0.00
2023-12-17T04:11:52.556Z,0.00
2023-12-17T04:12:52.539Z,0.00
2023-12-17T04:13:52.494Z,0.00
2023-12-17T04:14:52.519Z,0.00
2023-12-17T04:15:52.476Z,0.00
2023-12-17T04:16:52.500Z,0.00
2023-12-17T04:17:52.534Z,0.00
2023-12-17T04:18:52.639Z,0.00
2023-12-17T04:19:52.472Z,0.00
2023-12-17T04:20:52.450Z,0.00
2023-12-17T04:21:53.439Z,0.00
2023-12-17T04:22:52.416Z,0.00
2023-12-17T04:23:52.417Z,0.00
2023-12-17T04:24:52.390Z,0.00
2023-12-17T04:25:52.380Z,0.00
2023-12-17T04:26:52.406Z,0.00
2023-12-17T04:27:52.364Z,0.00
2023-12-17T04:28:52.350Z,0.00
2023-12-17T04:29:52.374Z,0.00
2023-12-17T04:30:52.395Z,0.00
2023-12-17T04:31:52.392Z,0.00
2023-12-17T04:32:52.425Z,0.00
2023-12-17T04:33:52.380Z,0.00
2023-12-17T04:34:52.289Z,0.00
2023-12-17T04:35:52.326Z,0.00
2023-12-17T04:36:52.300Z,0.00
2023-12-17T04:37:52.284Z,0.00
2023-12-17T04:38:52.339Z,0.00
2023-12-17T04:39:52.245Z,0.00
2023-12-17T04:40:52.651Z,0.00
2023-12-17T04:41:52.230Z,0.00
2023-12-17T04:42:52.220Z,0.00
2023-12-17T04:43:52.207Z,0.00
2023-12-17T04:44:52.492Z,0.00
2023-12-17T04:45:52.198Z,0.00
2023-12-17T04:46:52.160Z,0.00
2023-12-17T04:47:52.321Z,0.00
2023-12-17T04:48:52.233Z,0.00
2023-12-17T04:49:52.216Z,0.00
2023-12-17T04:50:52.149Z,0.00
2023-12-17T04:51:52.105Z,0.00
2023-12-17T04:52:52.099Z,0.00
2023-12-17T04:53:52.122Z,0.00
2023-12-17T04:54:52.098Z,0.00
2023-12-17T04:55:52.073Z,0.00
2023-12-17T04:56:52.143Z,0.00
2023-12-17T04:57:52.208Z,0.00
2023-12-17T04:58:52.074Z,0.00
2023-12-17T04:59:52.102Z,0.00
2023-12-17T05:00:52.082Z,0.00
2023-12-17T05:01:52.017Z,0.00
2023-12-17T05:02:52.138Z,0.00
2023-12-17T05:03:52.086Z,0.00
2023-12-17T05:04:52.083Z,0.00
2023-12-17T05:05:52.063Z,0.00
2023-12-17T05:06:52.143Z,0.00
2023-12-17T05:07:52.096Z,0.00
2023-12-17T05:08:51.998Z,0.00
2023-12-17T05:09:51.940Z,0.00
2023-12-17T05:10:52.159Z,0.00
2023-12-17T05:11:52.937Z,0.00
2023-12-17T05:12:51.920Z,0.00
2023-12-17T05:13:51.912Z,0.00
2023-12-17T05:14:51.901Z,0.00
2023-12-17T05:15:51.877Z,0.00
2023-12-17T05:16:51.871Z,0.00
2023-12-17T05:17:52.085Z,0.00
2023-12-17T05:18:52.034Z,0.00
2023-12-17T05:19:51.980Z,0.00
2023-12-17T05:20:51.937Z,0.00
2023-12-17T05:21:51.815Z,0.00
2023-12-17T05:22:51.814Z,0.00
2023-12-17T05:23:51.825Z,0.00
2023-12-17T05:24:51.787Z,0.00
2023-12-17T05:25:51.761Z,0.00
2023-12-17T05:26:51.802Z,0.00
2023-12-17T05:27:51.762Z,0.00
2023-12-17T05:28:51.737Z,0.00
2023-12-17T05:29:51.854Z,0.00
2023-12-17T05:30:51.857Z,0.00
2023-12-17T05:31:51.711Z,0.00
2023-12-17T05:32:51.810Z,0.00
2023-12-17T05:33:51.797Z,0.00
2023-12-17T05:34:51.674Z,0.00
2023-12-17T05:35:51.702Z,0.00
2023-12-17T05:36:51.673Z,0.00
2023-12-17T05:37:51.638Z,0.00
2023-12-17T05:38:51.661Z,0.00
2023-12-17T05:39:51.614Z,0.00
2023-12-17T05:40:51.632Z,0.00
2023-12-17T05:41:51.659Z,0.00
2023-12-17T05:42:51.603Z,0.00
2023-12-17T05:43:51.734Z,0.00
2023-12-17T05:44:51.647Z,0.00
2023-12-17T05:45:58.496Z,0.00
2023-12-17T05:46:52.589Z,0.00
2023-12-17T05:47:51.681Z,0.00
2023-12-17T05:48:51.632Z,0.00
2023-12-17T05:49:51.957Z,0.00
2023-12-17T05:50:51.642Z,0.00
2023-12-17T05:51:53.145Z,0.00
2023-12-17T05:52:51.495Z,0.00
2023-12-17T05:53:51.557Z,0.00
2023-12-17T05:54:51.502Z,0.00
2023-12-17T05:55:51.481Z,0.00
2023-12-17T05:56:51.473Z,0.00
2023-12-17T05:57:51.466Z,0.00
2023-12-17T05:58:51.422Z,0.00
2023-12-17T05:59:51.448Z,0.00
2023-12-17T06:00:51.436Z,0.00
2023-12-17T06:01:51.397Z,0.00
2023-12-17T06:02:51.402Z,0.00
2023-12-17T06:03:51.498Z,0.00
2023-12-17T06:04:51.414Z,0.00
2023-12-17T06:05:51.500Z,0.00
2023-12-17T06:06:51.449Z,0.00
2023-12-17T06:07:51.331Z,0.00
2023-12-17T06:08:51.381Z,0.00
2023-12-17T06:09:51.313Z,0.00
2023-12-17T06:10:51.317Z,0.00
2023-12-17T06:11:51.405Z,0.00
2023-12-17T06:12:51.394Z,0.00
2023-12-17T06:13:51.283Z,0.00
2023-12-17T06:14:51.338Z,0.00
2023-12-17T06:15:51.254Z,0.00
2023-12-17T06:16:51.239Z,0.00
2023-12-17T06:17:51.456Z,0.00
2023-12-17T06:18:51.564Z,0.00
2023-12-17T06:19:51.341Z,0.00
2023-12-17T06:20:51.257Z,0.00
2023-12-17T06:21:51.240Z,0.00
2023-12-17T06:22:51.216Z,0.00
2023-12-17T06:23:51.189Z,0.00
2023-12-17T06:24:51.160Z,0.00
2023-12-17T06:25:51.153Z,0.00
2023-12-17T06:26:51.166Z,0.00
2023-12-17T06:27:51.154Z,0.00
2023-12-17T06:28:51.136Z,0.00
2023-12-17T06:29:51.159Z,0.00
2023-12-17T06:30:51.148Z,0.00
2023-12-17T06:31:51.144Z,0.00
2023-12-17T06:32:51.273Z,0.00
2023-12-17T06:33:51.173Z,0.00
2023-12-17T06:34:51.064Z,0.00
2023-12-17T06:35:51.126Z,0.00
2023-12-17T06:36:51.072Z,0.00
2023-12-17T06:37:51.031Z,0.00
2023-12-17T06:38:51.102Z,0.00
2023-12-17T06:39:51.070Z,0.00
2023-12-17T06:40:51.004Z,0.00
2023-12-17T06:41:51.023Z,0.00
2023-12-17T06:42:51.082Z,0.00
2023-12-17T06:43:50.975Z,0.00
2023-12-17T06:44:50.988Z,0.00
2023-12-17T06:45:50.974Z,0.00
2023-12-17T06:46:51.200Z,0.00
2023-12-17T06:47:51.021Z,0.00
2023-12-17T06:48:51.069Z,0.00
2023-12-17T06:49:50.933Z,4.00
2023-12-17T06:50:50.954Z,4.00
2023-12-17T06:51:50.896Z,0.00
2023-12-17T06:52:51.007Z,4.00
2023-12-17T06:53:52.764Z,4.00
2023-12-17T06:54:51.866Z,0.00
2023-12-17T06:55:50.879Z,4.00
2023-12-17T06:56:50.864Z,4.00
2023-12-17T06:57:50.858Z,4.00
2023-12-17T06:58:50.839Z,8.00
2023-12-17T06:59:50.881Z,8.00
2023-12-17T07:02:09.433Z,8.00
2023-12-17T07:03:09.560Z,16.00
2023-12-17T07:04:09.422Z,16.00
2023-12-17T07:05:09.448Z,16.00
2023-12-17T07:06:09.434Z,16.00
2023-12-17T07:07:10.535Z,20.00
2023-12-17T07:08:10.500Z,24.00
2023-12-17T07:09:10.536Z,28.00
2023-12-17T07:10:10.504Z,28.00
2023-12-17T07:11:10.478Z,32.00
2023-12-17T07:12:10.511Z,32.00
2023-12-17T07:13:10.463Z,40.00
2023-12-17T07:14:10.490Z,44.00
2023-12-17T07:15:10.494Z,48.00
2023-12-17T07:16:10.435Z,52.00
2023-12-17T07:17:10.417Z,56.00
2023-12-17T07:18:10.463Z,60.00
2023-12-17T07:19:10.542Z,60.00
2023-12-17T07:20:10.399Z,76.00
2023-12-17T07:21:10.495Z,80.00
2023-12-17T07:22:10.377Z,80.00
2023-12-17T07:23:10.421Z,88.00
2023-12-17T07:24:10.431Z,96.00
2023-12-17T07:25:10.417Z,104.00
2023-12-17T07:26:10.354Z,116.00
2023-12-17T07:27:10.436Z,128.00
2023-12-17T07:28:10.469Z,140.00
2023-12-17T07:29:10.376Z,156.00
2023-12-17T07:30:10.458Z,168.00
2023-12-17T07:31:10.435Z,180.00
2023-12-17T07:32:10.307Z,192.00
2023-12-17T07:33:10.469Z,196.00
2023-12-17T07:34:10.372Z,196.00
2023-12-17T07:35:10.247Z,228.00
2023-12-17T07:36:10.293Z,260.00
2023-12-17T07:37:10.243Z,276.00
2023-12-17T07:38:10.241Z,296.00
2023-12-17T07:39:10.282Z,328.00
2023-12-17T07:40:10.192Z,328.00
2023-12-17T07:41:10.194Z,368.00
2023-12-17T07:42:10.266Z,392.00
2023-12-17T07:43:10.165Z,388.00
2023-12-17T07:44:10.157Z,416.00
2023-12-17T07:45:10.217Z,404.00
2023-12-17T07:46:10.137Z,420.00
2023-12-17T07:47:10.126Z,448.00
2023-12-17T07:48:10.300Z,508.00
2023-12-17T07:49:10.204Z,556.00
2023-12-17T07:50:10.084Z,576.00
2023-12-17T07:51:10.142Z,640.00
2023-12-17T07:52:10.126Z,680.00
2023-12-17T07:53:10.103Z,672.00
2023-12-17T07:54:10.069Z,648.00
2023-12-17T07:55:10.036Z,732.00
2023-12-17T07:56:10.052Z,764.00
2023-12-17T07:57:10.049Z,820.00
2023-12-17T07:58:10.011Z,840.00
2023-12-17T07:59:09.997Z,864.00
2023-12-17T08:00:10.039Z,936.00
2023-12-17T08:01:10.035Z,964.00
2023-12-17T08:02:09.980Z,956.00
2023-12-17T08:03:10.091Z,920.00
2023-12-17T08:04:10.082Z,928.00
2023-12-17T08:05:10.055Z,972.00
2023-12-17T08:06:10.019Z,976.00
2023-12-17T08:07:09.986Z,984.00
2023-12-17T08:08:09.922Z,996.00
2023-12-17T08:09:09.944Z,1024.00
2023-12-17T08:10:09.948Z,1004.00
2023-12-17T08:11:09.877Z,1036.00
2023-12-17T08:12:10.003Z,1108.00
2023-12-17T08:13:09.852Z,1100.00
2023-12-17T08:14:09.872Z,1116.00
2023-12-17T08:15:09.868Z,1052.00
2023-12-17T08:16:09.867Z,1036.00
2023-12-17T08:17:09.821Z,996.00
2023-12-17T08:18:09.902Z,1000.00
2023-12-17T08:19:09.842Z,1020.00
2023-12-17T08:20:09.806Z,1020.00
2023-12-17T08:21:09.828Z,1068.00
2023-12-17T08:22:09.866Z,1096.00
2023-12-17T08:23:09.752Z,1088.00
2023-12-17T08:24:09.810Z,1124.00
2023-12-17T08:25:09.751Z,1044.00
2023-12-17T08:26:09.729Z,1080.00
2023-12-17T08:27:09.806Z,1244.00
2023-12-17T08:28:09.731Z,1168.00
2023-12-17T08:29:09.720Z,1128.00
2023-12-17T08:30:09.804Z,1132.00
2023-12-17T08:31:09.742Z,1188.00
2023-12-17T08:32:09.680Z,1296.00
2023-12-17T08:33:09.812Z,1268.00
2023-12-17T08:34:09.735Z,1208.00
2023-12-17T08:35:09.657Z,1128.00
2023-12-17T08:36:09.642Z,1136.00
2023-12-17T08:37:09.635Z,1260.00
2023-12-17T08:38:09.621Z,1284.00
2023-12-17T08:39:09.624Z,1484.00
2023-12-17T08:40:09.590Z,1412.00
2023-12-17T08:41:09.574Z,1212.00
2023-12-17T08:42:09.601Z,1444.00
2023-12-17T08:43:09.605Z,1296.00
2023-12-17T08:44:09.573Z,1328.00
2023-12-17T08:45:09.596Z,1352.00
2023-12-17T08:46:09.533Z,1348.00
2023-12-17T08:47:09.554Z,1384.00
2023-12-17T08:48:09.660Z,1408.00
2023-12-17T08:49:09.623Z,1408.00
2023-12-17T08:50:09.482Z,1256.00
2023-12-17T08:51:09.515Z,1228.00
2023-12-17T08:52:09.493Z,1316.00
2023-12-17T08:53:10.450Z,1452.00
2023-12-17T08:54:09.499Z,1548.00
2023-12-17T08:55:09.460Z,1524.00
2023-12-17T08:56:09.424Z,1452.00
2023-12-17T08:57:09.608Z,1524.00
2023-12-17T08:58:09.397Z,1436.00
2023-12-17T08:59:09.392Z,1604.00
2023-12-17T09:00:09.514Z,1704.00
2023-12-17T09:01:09.393Z,1664.00
2023-12-17T09:02:09.398Z,1452.00
2023-12-17T09:03:09.448Z,1384.00
2023-12-17T09:04:09.433Z,1536.00
2023-12-17T09:05:09.338Z,1752.00
2023-12-17T09:06:09.385Z,1672.00
2023-12-17T09:07:09.319Z,1572.00
2023-12-17T09:08:09.353Z,1700.00
2023-12-17T09:09:09.309Z,1688.00
2023-12-17T09:10:09.286Z,1660.00
2023-12-17T09:11:09.316Z,1636.00
2023-12-17T09:12:09.293Z,1760.00
2023-12-17T09:13:09.296Z,1840.00
2023-12-17T09:14:09.253Z,1728.00
2023-12-17T09:15:09.318Z,1588.00
2023-12-17T09:16:09.245Z,1644.00
2023-12-17T09:17:09.218Z,2012.00
2023-12-17T09:18:09.545Z,1712.00
2023-12-17T09:19:09.321Z,1852.00
2023-12-17T09:20:09.220Z,1964.00
2023-12-17T09:21:09.199Z,1768.00
2023-12-17T09:22:09.154Z,1768.00
2023-12-17T09:23:09.157Z,1836.00
2023-12-17T09:24:09.188Z,1852.00
2023-12-17T09:25:09.191Z,1908.00
2023-12-17T09:26:09.123Z,2016.00
2023-12-17T09:27:09.146Z,2016.00
2023-12-17T09:28:09.108Z,1968.00
2023-12-17T09:29:10.111Z,1856.00
2023-12-17T09:30:09.251Z,2024.00
2023-12-17T09:31:09.145Z,2260.00
2023-12-17T09:32:09.066Z,2264.00
2023-12-17T09:33:09.256Z,2256.00
2023-12-17T09:34:09.210Z,2236.00
2023-12-17T09:35:09.028Z,2280.00
2023-12-17T09:36:09.062Z,2240.00
2023-12-17T09:37:09.011Z,2312.00
2023-12-17T09:38:12.374Z,2444.00
2023-12-17T09:39:10.022Z,2296.00
2023-12-17T09:40:08.989Z,2184.00
2023-12-17T09:41:08.960Z,2080.00
2023-12-17T09:42:09.004Z,2312.00
2023-12-17T09:43:08.959Z,2268.00
2023-12-17T09:44:08.957Z,2240.00
2023-12-17T09:45:08.952Z,2300.00
2023-12-17T09:46:08.940Z,2232.00
2023-12-17T09:47:08.913Z,2328.00
2023-12-17T09:48:09.108Z,2276.00
2023-12-17T09:49:08.953Z,2436.00
2023-12-17T09:50:08.903Z,2548.00
2023-12-17T09:51:08.922Z,2328.00
2023-12-17T09:52:08.859Z,2212.00
2023-12-17T09:53:08.890Z,2172.00
2023-12-17T09:54:08.867Z,2276.00
2023-12-17T09:55:08.834Z,2348.00
2023-12-17T09:56:08.810Z,2128.00
2023-12-17T09:57:08.883Z,2132.00
2023-12-17T09:58:08.810Z,2460.00
2023-12-17T09:59:08.782Z,2124.00
2023-12-17T10:00:08.908Z,2080.00
2023-12-17T10:01:08.950Z,2128.00
2023-12-17T10:02:08.923Z,2360.00
2023-12-17T10:03:08.840Z,2132.00
2023-12-17T10:04:08.800Z,2080.00
2023-12-17T10:05:08.777Z,2088.00
2023-12-17T10:06:08.752Z,2412.00
2023-12-17T10:07:08.729Z,2216.00
2023-12-17T10:08:08.703Z,2248.00
2023-12-17T10:09:08.820Z,2444.00
2023-12-17T10:10:08.689Z,2448.00
2023-12-17T10:11:08.689Z,2428.00
2023-12-17T10:12:08.700Z,2372.00
2023-12-17T10:13:09.654Z,2308.00
2023-12-17T10:14:08.639Z,2408.00
2023-12-17T10:15:08.671Z,2356.00
2023-12-17T10:16:08.634Z,2488.00
2023-12-17T10:17:08.616Z,2468.00
2023-12-17T10:18:08.865Z,2336.00
2023-12-17T10:19:08.674Z,2488.00
2023-12-17T10:20:08.671Z,2496.00
2023-12-17T10:21:08.620Z,2332.00
2023-12-17T10:22:08.568Z,2424.00
2023-12-17T10:23:08.547Z,2332.00
2023-12-17T10:24:08.568Z,2212.00
2023-12-17T10:25:08.557Z,2340.00
2023-12-17T10:26:08.531Z,2144.00
2023-12-17T10:27:08.573Z,2100.00
2023-12-17T10:28:08.493Z,2196.00
2023-12-17T10:29:08.505Z,2228.00
2023-12-17T10:30:08.562Z,2320.00
2023-12-17T10:31:08.618Z,2392.00
2023-12-17T10:32:08.452Z,2540.00
2023-12-17T10:33:08.527Z,2272.00
2023-12-17T10:34:08.623Z,2276.00
2023-12-17T10:35:08.606Z,2432.00
2023-12-17T10:36:08.457Z,2268.00
2023-12-17T10:37:08.414Z,2184.00
2023-12-17T10:38:08.408Z,2240.00
2023-12-17T10:39:08.429Z,2236.00
2023-12-17T10:40:08.412Z,2308.00
2023-12-17T10:41:08.370Z,2380.00
2023-12-17T10:42:08.394Z,2520.00
2023-12-17T10:43:08.353Z,2368.00
2023-12-17T10:44:08.346Z,2344.00
2023-12-17T10:45:08.358Z,2504.00
2023-12-17T10:46:08.305Z,2284.00
2023-12-17T10:47:08.326Z,2228.00
2023-12-17T10:48:09.607Z,2216.00
2023-12-17T10:49:08.463Z,2304.00
2023-12-17T10:50:08.281Z,2352.00
2023-12-17T10:51:08.259Z,2272.00
2023-12-17T10:52:08.250Z,2528.00
2023-12-17T10:53:08.270Z,2612.00
2023-12-17T10:54:08.279Z,2780.00
2023-12-17T10:55:08.226Z,2856.00
2023-12-17T10:56:08.205Z,2876.00
2023-12-17T10:57:08.237Z,2944.00
2023-12-17T10:58:08.199Z,3012.00
2023-12-17T10:59:08.169Z,2860.00
2023-12-17T11:00:08.208Z,2708.00
2023-12-17T11:01:08.187Z,2676.00
2023-12-17T11:02:08.169Z,2772.00
2023-12-17T11:03:08.302Z,2860.00
2023-12-17T11:04:08.176Z,2908.00
2023-12-17T11:05:08.147Z,2856.00
2023-12-17T11:06:08.165Z,2780.00
2023-12-17T11:07:08.716Z,2904.00
2023-12-17T11:08:08.079Z,2828.00
2023-12-17T11:09:08.101Z,2640.00
2023-12-17T11:10:08.060Z,2920.00
2023-12-17T11:11:08.086Z,3004.00
2023-12-17T11:12:08.095Z,3276.00
2023-12-17T11:13:08.038Z,3116.00
2023-12-17T11:14:08.125Z,2932.00
2023-12-17T11:15:08.091Z,3080.00
2023-12-17T11:16:08.007Z,3032.00
2023-12-17T11:17:07.998Z,3012.00
2023-12-17T11:18:08.049Z,3128.00
2023-12-17T11:19:08.093Z,3380.00
2023-12-17T11:20:07.983Z,3308.00
2023-12-17T11:21:07.980Z,3284.00
2023-12-17T11:22:07.936Z,3496.00
2023-12-17T11:23:07.931Z,3096.00
2023-12-17T11:24:07.932Z,2880.00
2023-12-17T11:25:07.964Z,2980.00
2023-12-17T11:26:07.902Z,3132.00
2023-12-17T11:27:07.936Z,3152.00
2023-12-17T11:28:07.935Z,3000.00
2023-12-17T11:29:07.868Z,2964.00
2023-12-17T11:30:07.982Z,2836.00
2023-12-17T11:31:08.035Z,2632.00
2023-12-17T11:32:07.838Z,2612.00
2023-12-17T11:33:08.021Z,2548.00
2023-12-17T11:34:07.900Z,2624.00
2023-12-17T11:35:07.820Z,2348.00
2023-12-17T11:36:07.856Z,2304.00
2023-12-17T11:37:07.797Z,2624.00
2023-12-17T11:38:07.872Z,2520.00
2023-12-17T11:39:07.790Z,2524.00
2023-12-17T11:40:07.853Z,2460.00
2023-12-17T11:41:07.742Z,2564.00
2023-12-17T11:42:07.762Z,2276.00
2023-12-17T11:43:07.735Z,2296.00
2023-12-17T11:44:07.727Z,2144.00
2023-12-17T11:45:07.777Z,2300.00
2023-12-17T11:46:07.685Z,2352.00
2023-12-17T11:47:08.683Z,2340.00
2023-12-17T11:48:07.753Z,2408.00
2023-12-17T11:49:07.741Z,2528.00
2023-12-17T11:50:07.710Z,2348.00
2023-12-17T11:51:07.695Z,2388.00
2023-12-17T11:52:07.622Z,2236.00
2023-12-17T11:53:08.614Z,2416.00
2023-12-17T11:54:07.647Z,2556.00
2023-12-17T11:55:07.627Z,2628.00
2023-12-17T11:56:07.585Z,2716.00
2023-12-17T11:57:07.594Z,2684.00
2023-12-17T11:58:07.587Z,2832.00
2023-12-17T11:59:09.461Z,2852.00
2023-12-17T12:00:07.632Z,2808.00
2023-12-17T12:01:07.837Z,2800.00
2023-12-17T12:02:07.557Z,2740.00
2023-12-17T12:03:07.618Z,2432.00
2023-12-17T12:04:07.614Z,2500.00
2023-12-17T12:05:07.544Z,2448.00
2023-12-17T12:06:07.607Z,2300.00
2023-12-17T12:07:07.485Z,2344.00
2023-12-17T12:08:07.486Z,2276.00
2023-12-17T12:09:07.529Z,2484.00
2023-12-17T12:10:07.480Z,2636.00
2023-12-17T12:11:09.646Z,2388.00
2023-12-17T12:12:07.462Z,2420.00
2023-12-17T12:13:07.430Z,2428.00
2023-12-17T12:14:07.422Z,2456.00
2023-12-17T12:15:07.412Z,2552.00
2023-12-17T12:16:07.427Z,2544.00
2023-12-17T12:17:07.446Z,2320.00
2023-12-17T12:18:07.464Z,2416.00
2023-12-17T12:19:10.333Z,2576.00
2023-12-17T12:20:08.384Z,2560.00
2023-12-17T12:21:07.397Z,2656.00
2023-12-17T12:22:07.334Z,2796.00
2023-12-17T12:23:07.327Z,2616.00
2023-12-17T12:24:07.323Z,2500.00
2023-12-17T12:25:07.294Z,2484.00
2023-12-17T12:26:07.298Z,2408.00
2023-12-17T12:27:07.330Z,2412.00
2023-12-17T12:28:07.263Z,2484.00
2023-12-17T12:29:07.259Z,2448.00
2023-12-17T12:30:07.338Z,2512.00
2023-12-17T12:31:07.315Z,2544.00
2023-12-17T12:32:07.241Z,2684.00
2023-12-17T12:33:07.276Z,2708.00
2023-12-17T12:34:07.324Z,2612.00
2023-12-17T12:35:07.212Z,2376.00
2023-12-17T12:36:07.329Z,2316.00
2023-12-17T12:37:07.179Z,2308.00
2023-12-17T12:38:07.182Z,2416.00
2023-12-17T12:39:07.212Z,2520.00
2023-12-17T12:40:09.873Z,2256.00
2023-12-17T12:41:08.173Z,2144.00
2023-12-17T12:42:07.166Z,2056.00
2023-12-17T12:43:07.113Z,2064.00
2023-12-17T12:44:07.111Z,2012.00
2023-12-17T12:45:07.196Z,2024.00
2023-12-17T12:46:07.070Z,2080.00
2023-12-17T12:47:07.090Z,2176.00
2023-12-17T12:48:07.356Z,2080.00